createdAt,value
2022-12-01T00:00:19.248Z,2.46
2022-12-01T00:01:19.234Z,2.47
2022-12-01T00:02:19.396Z,2.44
2022-12-01T00:03:19.433Z,2.38
2022-12-01T00:04:19.206Z,2.42
2022-12-01T00:05:19.235Z,2.42
2022-12-01T00:06:19.207Z,2.38
2022-12-01T00:07:19.325Z,2.42
2022-12-01T00:08:19.151Z,2.44
2022-12-01T00:09:20.124Z,2.42
2022-12-01T00:10:19.133Z,2.49
2022-12-01T00:11:19.114Z,2.46
2022-12-01T00:12:19.108Z,2.49
2022-12-01T00:13:19.082Z,2.51
2022-12-01T00:14:19.070Z,2.51
2022-12-01T00:15:19.061Z,2.49
2022-12-01T00:16:19.102Z,2.47
2022-12-01T00:17:19.032Z,2.50
2022-12-01T00:18:19.021Z,2.39
2022-12-01T00:19:19.011Z,2.36
2022-12-01T00:20:19.005Z,2.38
2022-12-01T00:21:19.016Z,2.38
2022-12-01T00:22:18.969Z,2.32
2022-12-01T00:23:18.953Z,2.31
2022-12-01T00:24:18.944Z,2.28
2022-12-01T00:25:18.937Z,2.31
2022-12-01T00:26:18.925Z,2.32
2022-12-01T00:27:18.911Z,2.35
2022-12-01T00:28:18.900Z,2.35
2022-12-01T00:29:18.873Z,2.29
2022-12-01T00:30:18.862Z,2.32
2022-12-01T00:31:18.952Z,2.29
2022-12-01T00:32:18.846Z,2.36
2022-12-01T00:33:18.822Z,2.39
2022-12-01T00:34:18.817Z,2.33
2022-12-01T00:35:18.797Z,2.35
2022-12-01T00:36:18.803Z,2.33
2022-12-01T00:37:18.800Z,2.35
2022-12-01T00:38:18.768Z,2.38
2022-12-01T00:39:18.758Z,2.36
2022-12-01T00:40:18.730Z,2.35
2022-12-01T00:41:18.724Z,2.31
2022-12-01T00:42:18.710Z,2.28
2022-12-01T00:43:18.698Z,2.26
2022-12-01T00:44:18.699Z,2.24
2022-12-01T00:45:18.676Z,2.26
2022-12-01T00:46:18.714Z,2.29
2022-12-01T00:47:18.654Z,2.25
2022-12-01T00:48:18.628Z,2.25
2022-12-01T00:49:18.618Z,2.26
2022-12-01T00:50:18.616Z,2.25
2022-12-01T00:51:18.591Z,2.26
2022-12-01T00:52:18.588Z,2.26
2022-12-01T00:53:18.604Z,2.26
2022-12-01T00:54:18.561Z,2.28
2022-12-01T00:55:18.539Z,2.29
2022-12-01T00:56:18.545Z,2.26
2022-12-01T00:57:18.515Z,2.26
2022-12-01T00:58:18.521Z,2.28
2022-12-01T00:59:18.501Z,2.25
2022-12-01T01:00:18.493Z,2.22
2022-12-01T01:01:18.605Z,2.25
2022-12-01T01:02:18.568Z,2.22
2022-12-01T01:03:18.446Z,2.20
2022-12-01T01:04:18.434Z,2.20
2022-12-01T01:05:18.424Z,2.20
2022-12-01T01:06:18.410Z,2.20
2022-12-01T01:07:18.383Z,2.25
2022-12-01T01:08:18.371Z,2.26
2022-12-01T01:09:18.409Z,2.25
2022-12-01T01:10:18.352Z,2.22
2022-12-01T01:11:18.333Z,2.20
2022-12-01T01:12:18.321Z,2.20
2022-12-01T01:13:18.317Z,2.14
2022-12-01T01:14:18.303Z,2.15
2022-12-01T01:15:18.280Z,2.14
2022-12-01T01:16:18.372Z,2.15
2022-12-01T01:17:18.264Z,2.13
2022-12-01T01:18:18.242Z,2.11
2022-12-01T01:19:18.236Z,2.14
2022-12-01T01:20:18.220Z,2.11
2022-12-01T01:21:18.204Z,2.14
2022-12-01T01:22:18.195Z,2.10
2022-12-01T01:23:18.195Z,2.13
2022-12-01T01:24:18.169Z,2.13
2022-12-01T01:25:18.302Z,2.14
2022-12-01T01:26:18.140Z,2.17
2022-12-01T01:27:18.136Z,2.15
2022-12-01T01:28:18.114Z,2.14
2022-12-01T01:29:18.106Z,2.13
2022-12-01T01:30:18.090Z,2.07
2022-12-01T01:31:18.208Z,2.08
2022-12-01T01:32:18.059Z,2.00
2022-12-01T01:33:18.056Z,1.94
2022-12-01T01:34:18.038Z,1.97
2022-12-01T01:35:18.023Z,1.95
2022-12-01T01:36:18.019Z,1.99
2022-12-01T01:37:18.006Z,1.97
2022-12-01T01:38:17.991Z,1.99
2022-12-01T01:39:17.969Z,2.00
2022-12-01T01:40:17.966Z,2.00
2022-12-01T01:41:17.981Z,1.95
2022-12-01T01:42:17.933Z,1.99
2022-12-01T01:43:17.923Z,1.99
2022-12-01T01:44:17.909Z,1.99
2022-12-01T01:45:17.897Z,1.99
2022-12-01T01:46:18.055Z,1.97
2022-12-01T01:47:17.864Z,1.95
2022-12-01T01:48:17.861Z,1.92
2022-12-01T01:49:17.850Z,1.84
2022-12-01T01:50:17.838Z,1.84
2022-12-01T01:51:17.827Z,1.85
2022-12-01T01:52:17.807Z,1.88
2022-12-01T01:53:17.788Z,1.87
2022-12-01T01:54:17.788Z,1.89
2022-12-01T01:55:17.775Z,1.88
2022-12-01T01:56:17.748Z,1.84
2022-12-01T01:57:17.767Z,1.88
2022-12-01T01:58:17.725Z,1.89
2022-12-01T01:59:17.719Z,1.87
2022-12-01T02:00:17.706Z,1.80
2022-12-01T02:01:17.780Z,1.89
2022-12-01T02:02:17.766Z,1.81
2022-12-01T02:03:17.703Z,1.87
2022-12-01T02:04:17.657Z,1.89
2022-12-01T02:05:17.627Z,1.91
2022-12-01T02:06:17.647Z,1.85
2022-12-01T02:07:17.616Z,1.85
2022-12-01T02:08:17.600Z,1.88
2022-12-01T02:09:17.588Z,1.84
2022-12-01T02:10:17.566Z,1.87
2022-12-01T02:11:17.551Z,1.88
2022-12-01T02:12:17.547Z,1.91
2022-12-01T02:13:17.549Z,1.85
2022-12-01T02:14:17.524Z,1.89
2022-12-01T02:15:17.500Z,1.92
2022-12-01T02:16:17.545Z,1.94
2022-12-01T02:17:17.475Z,1.95
2022-12-01T02:18:17.468Z,1.99
2022-12-01T02:19:17.449Z,1.97
2022-12-01T02:20:17.445Z,1.97
2022-12-01T02:21:17.427Z,1.97
2022-12-01T02:22:17.413Z,1.99
2022-12-01T02:23:17.411Z,1.97
2022-12-01T02:24:17.394Z,1.89
2022-12-01T02:25:17.383Z,1.91
2022-12-01T02:26:17.369Z,1.92
2022-12-01T02:27:17.358Z,1.91
2022-12-01T02:28:17.337Z,1.87
2022-12-01T02:29:17.356Z,1.85
2022-12-01T02:30:17.314Z,1.81
2022-12-01T02:31:17.381Z,1.78
2022-12-01T02:32:17.294Z,1.76
2022-12-01T02:33:17.279Z,1.73
2022-12-01T02:34:17.271Z,1.70
2022-12-01T02:35:17.260Z,1.70
2022-12-01T02:36:17.239Z,1.60
2022-12-01T02:37:17.231Z,1.59
2022-12-01T02:38:17.215Z,1.58
2022-12-01T02:39:17.195Z,1.58
2022-12-01T02:40:17.185Z,1.59
2022-12-01T02:41:17.169Z,1.59
2022-12-01T02:42:17.164Z,1.58
2022-12-01T02:43:17.154Z,1.48
2022-12-01T02:44:17.133Z,1.50
2022-12-01T02:45:17.146Z,1.49
2022-12-01T02:46:17.180Z,1.50
2022-12-01T02:47:17.095Z,1.49
2022-12-01T02:48:17.079Z,1.53
2022-12-01T02:49:17.077Z,1.50
2022-12-01T02:50:17.069Z,1.50
2022-12-01T02:51:17.051Z,1.52
2022-12-01T02:52:17.054Z,1.52
2022-12-01T02:53:17.025Z,1.55
2022-12-01T02:54:17.011Z,1.56
2022-12-01T02:55:16.998Z,1.60
2022-12-01T02:56:16.987Z,1.53
2022-12-01T02:57:16.971Z,1.53
2022-12-01T02:58:16.959Z,1.50
2022-12-01T02:59:16.938Z,1.52
2022-12-01T03:00:16.938Z,1.55
2022-12-01T03:01:17.031Z,1.45
2022-12-01T03:02:16.985Z,1.44
2022-12-01T03:03:16.895Z,1.44
2022-12-01T03:04:16.874Z,1.50
2022-12-01T03:05:16.861Z,1.48
2022-12-01T03:06:16.854Z,1.50
2022-12-01T03:07:16.835Z,1.48
2022-12-01T03:08:16.823Z,1.50
2022-12-01T03:09:16.808Z,1.40
2022-12-01T03:10:16.806Z,1.41
2022-12-01T03:11:16.790Z,1.41
2022-12-01T03:12:16.774Z,1.42
2022-12-01T03:13:16.769Z,1.42
2022-12-01T03:14:16.746Z,1.41
2022-12-01T03:15:16.741Z,1.35
2022-12-01T03:16:16.848Z,1.38
2022-12-01T03:17:16.734Z,1.45
2022-12-01T03:18:16.701Z,1.42
2022-12-01T03:19:16.686Z,1.44
2022-12-01T03:20:16.677Z,1.48
2022-12-01T03:21:16.663Z,1.45
2022-12-01T03:22:16.645Z,1.52
2022-12-01T03:23:16.626Z,1.49
2022-12-01T03:24:16.627Z,1.44
2022-12-01T03:25:16.613Z,1.45
2022-12-01T03:26:16.588Z,1.48
2022-12-01T03:27:16.574Z,1.45
2022-12-01T03:28:23.812Z,1.44
2022-12-01T03:29:17.585Z,1.49
2022-12-01T03:30:16.561Z,1.48
2022-12-01T03:31:16.609Z,1.45
2022-12-01T03:32:16.519Z,1.44
2022-12-01T03:33:16.535Z,1.48
2022-12-01T03:34:16.490Z,1.48
2022-12-01T03:35:16.471Z,1.49
2022-12-01T03:36:16.458Z,1.49
2022-12-01T03:37:16.450Z,1.50
2022-12-01T03:38:16.442Z,1.56
2022-12-01T03:39:16.419Z,1.52
2022-12-01T03:40:16.415Z,1.52
2022-12-01T03:41:16.414Z,1.50
2022-12-01T03:42:16.392Z,1.48
2022-12-01T03:43:16.367Z,1.45
2022-12-01T03:44:16.356Z,1.40
2022-12-01T03:45:16.349Z,1.41
2022-12-01T03:46:16.429Z,1.40
2022-12-01T03:47:16.315Z,1.44
2022-12-01T03:48:16.305Z,1.41
2022-12-01T03:49:16.329Z,1.42
2022-12-01T03:50:16.289Z,1.41
2022-12-01T03:51:16.273Z,1.42
2022-12-01T03:52:16.251Z,1.41
2022-12-01T03:53:16.246Z,1.44
2022-12-01T03:54:16.225Z,1.34
2022-12-01T03:55:16.221Z,1.41
2022-12-01T03:56:16.216Z,1.31
2022-12-01T03:57:16.186Z,1.37
2022-12-01T03:58:16.175Z,1.30
2022-12-01T03:59:16.161Z,1.32
2022-12-01T04:00:16.156Z,1.38
2022-12-01T04:01:16.217Z,1.32
2022-12-01T04:02:16.128Z,1.34
2022-12-01T04:03:16.158Z,1.30
2022-12-01T04:04:16.093Z,1.24
2022-12-01T04:05:18.920Z,1.17
2022-12-01T04:06:16.069Z,1.20
2022-12-01T04:07:16.058Z,1.23
2022-12-01T04:08:16.053Z,1.28
2022-12-01T04:09:16.037Z,1.30
2022-12-01T04:10:16.019Z,1.30
2022-12-01T04:11:16.008Z,1.24
2022-12-01T04:12:15.995Z,1.26
2022-12-01T04:13:15.980Z,1.28
2022-12-01T04:14:15.967Z,1.28
2022-12-01T04:15:15.952Z,1.24
2022-12-01T04:16:15.967Z,1.26
2022-12-01T04:17:15.936Z,1.26
2022-12-01T04:18:15.923Z,1.24
2022-12-01T04:19:15.910Z,1.26
2022-12-01T04:20:15.888Z,1.26
2022-12-01T04:21:15.899Z,1.34
2022-12-01T04:22:15.868Z,1.31
2022-12-01T04:23:15.867Z,1.35
2022-12-01T04:24:15.843Z,1.32
2022-12-01T04:25:15.824Z,1.32
2022-12-01T04:26:16.114Z,1.26
2022-12-01T04:27:15.804Z,1.28
2022-12-01T04:28:15.785Z,1.20
2022-12-01T04:29:15.771Z,1.24
2022-12-01T04:30:15.766Z,1.28
2022-12-01T04:31:15.835Z,1.28
2022-12-01T04:32:15.733Z,1.22
2022-12-01T04:33:15.722Z,1.22
2022-12-01T04:34:15.708Z,1.19
2022-12-01T04:35:15.696Z,1.19
2022-12-01T04:36:15.688Z,1.17
2022-12-01T04:37:15.709Z,1.13
2022-12-01T04:38:15.657Z,1.08
2022-12-01T04:39:15.652Z,1.06
2022-12-01T04:40:15.637Z,1.08
2022-12-01T04:41:15.622Z,1.12
2022-12-01T04:42:15.605Z,1.12
2022-12-01T04:43:15.596Z,1.16
2022-12-01T04:44:15.584Z,1.17
2022-12-01T04:45:15.570Z,1.20
2022-12-01T04:46:15.617Z,1.20
2022-12-01T04:47:15.538Z,1.17
2022-12-01T04:48:15.533Z,1.19
2022-12-01T04:49:15.511Z,1.24
2022-12-01T04:50:15.499Z,1.28
2022-12-01T04:51:15.488Z,1.31
2022-12-01T04:52:15.483Z,1.31
2022-12-01T04:53:15.490Z,1.32
2022-12-01T04:54:15.457Z,1.38
2022-12-01T04:55:15.444Z,1.41
2022-12-01T04:56:15.428Z,1.41
2022-12-01T04:57:15.412Z,1.41
2022-12-01T04:58:15.402Z,1.41
2022-12-01T04:59:15.391Z,1.41
2022-12-01T05:00:15.375Z,1.44
2022-12-01T05:01:15.423Z,1.50
2022-12-01T05:02:15.421Z,1.37
2022-12-01T05:03:15.462Z,1.42
2022-12-01T05:04:15.319Z,1.32
2022-12-01T05:05:15.316Z,1.45
2022-12-01T05:06:15.292Z,1.41
2022-12-01T05:07:15.291Z,1.42
2022-12-01T05:08:15.265Z,1.37
2022-12-01T05:09:17.590Z,1.34
2022-12-01T05:10:15.244Z,1.34
2022-12-01T05:11:15.235Z,1.34
2022-12-01T05:12:15.214Z,1.30
2022-12-01T05:13:15.201Z,1.34
2022-12-01T05:14:15.189Z,1.37
2022-12-01T05:15:15.184Z,1.32
2022-12-01T05:16:15.269Z,1.30
2022-12-01T05:17:15.155Z,1.34
2022-12-01T05:18:15.184Z,1.34
2022-12-01T05:19:15.138Z,1.34
2022-12-01T05:20:15.114Z,1.31
2022-12-01T05:21:15.100Z,1.34
2022-12-01T05:22:15.090Z,1.34
2022-12-01T05:23:16.917Z,1.34
2022-12-01T05:24:15.064Z,1.37
2022-12-01T05:25:15.076Z,1.37
2022-12-01T05:26:15.030Z,1.40
2022-12-01T05:27:15.022Z,1.41
2022-12-01T05:28:15.019Z,1.40
2022-12-01T05:29:14.992Z,1.44
2022-12-01T05:30:14.984Z,1.45
2022-12-01T05:31:15.031Z,1.41
2022-12-01T05:32:14.954Z,1.44
2022-12-01T05:33:14.941Z,1.49
2022-12-01T05:34:14.935Z,1.45
2022-12-01T05:35:14.929Z,1.50
2022-12-01T05:36:14.906Z,1.48
2022-12-01T05:37:14.893Z,1.42
2022-12-01T05:38:14.887Z,1.44
2022-12-01T05:39:14.862Z,1.42
2022-12-01T05:40:14.852Z,1.48
2022-12-01T05:41:14.859Z,1.45
2022-12-01T05:42:14.830Z,1.49
2022-12-01T05:43:14.813Z,1.45
2022-12-01T05:44:14.806Z,1.44
2022-12-01T05:45:14.795Z,1.45
2022-12-01T05:46:14.833Z,1.45
2022-12-01T05:47:14.768Z,1.48
2022-12-01T05:48:14.745Z,1.52
2022-12-01T05:49:14.733Z,1.52
2022-12-01T05:50:14.719Z,1.52
2022-12-01T05:51:14.708Z,1.53
2022-12-01T05:52:14.695Z,1.52
2022-12-01T05:53:14.682Z,1.50
2022-12-01T05:54:14.669Z,1.55
2022-12-01T05:55:14.657Z,1.56
2022-12-01T05:56:14.643Z,1.53
2022-12-01T05:57:14.660Z,1.52
2022-12-01T05:58:14.623Z,1.52
2022-12-01T05:59:14.610Z,1.58
2022-12-01T06:00:14.590Z,1.55
2022-12-01T06:01:14.579Z,1.53
2022-12-01T06:02:14.643Z,1.55
2022-12-01T06:03:14.568Z,1.52
2022-12-01T06:04:14.688Z,1.58
2022-12-01T06:05:14.535Z,1.53
2022-12-01T06:06:14.513Z,1.52
2022-12-01T06:07:14.507Z,1.55
2022-12-01T06:08:14.485Z,1.56
2022-12-01T06:09:14.479Z,1.53
2022-12-01T06:10:14.462Z,1.55
2022-12-01T06:11:14.454Z,1.53
2022-12-01T06:12:14.443Z,1.55
2022-12-01T06:13:14.456Z,1.52
2022-12-01T06:14:14.419Z,1.53
2022-12-01T06:15:14.400Z,1.55
2022-12-01T06:16:14.710Z,1.58
2022-12-01T06:17:14.371Z,1.53
2022-12-01T06:18:14.361Z,1.55
2022-12-01T06:19:14.353Z,1.53
2022-12-01T06:20:14.333Z,1.52
2022-12-01T06:21:14.326Z,1.55
2022-12-01T06:22:14.304Z,1.55
2022-12-01T06:23:14.297Z,1.53
2022-12-01T06:24:14.280Z,1.53
2022-12-01T06:25:14.267Z,1.56
2022-12-01T06:26:14.263Z,1.59
2022-12-01T06:27:14.247Z,1.62
2022-12-01T06:28:14.232Z,1.60
2022-12-01T06:29:14.245Z,1.58
2022-12-01T06:30:14.201Z,1.56
2022-12-01T06:31:14.193Z,1.59
2022-12-01T06:32:14.190Z,1.58
2022-12-01T06:33:14.171Z,1.66
2022-12-01T06:34:14.158Z,1.67
2022-12-01T06:35:14.144Z,1.63
2022-12-01T06:36:14.140Z,1.60
2022-12-01T06:37:14.120Z,1.59
2022-12-01T06:38:14.106Z,1.59
2022-12-01T06:39:14.087Z,1.58
2022-12-01T06:40:14.078Z,1.59
2022-12-01T06:41:14.067Z,1.56
2022-12-01T06:42:14.047Z,1.60
2022-12-01T06:43:14.039Z,1.59
2022-12-01T06:44:14.029Z,1.63
2022-12-01T06:45:14.037Z,1.53
2022-12-01T06:46:14.111Z,1.58
2022-12-01T06:47:13.989Z,1.58
2022-12-01T06:48:13.967Z,1.63
2022-12-01T06:49:13.959Z,1.66
2022-12-01T06:50:13.944Z,1.66
2022-12-01T06:51:13.926Z,1.60
2022-12-01T06:52:13.914Z,1.62
2022-12-01T06:53:13.910Z,1.62
2022-12-01T06:54:13.891Z,1.62
2022-12-01T06:55:14.222Z,1.59
2022-12-01T06:56:13.872Z,1.60
2022-12-01T06:57:13.855Z,1.58
2022-12-01T06:58:13.844Z,1.55
2022-12-01T06:59:13.828Z,1.56
2022-12-01T07:00:13.949Z,1.53
2022-12-01T07:01:13.886Z,1.60
2022-12-01T07:02:13.922Z,1.59
2022-12-01T07:03:13.777Z,1.59
2022-12-01T07:04:13.758Z,1.56
2022-12-01T07:05:13.750Z,1.53
2022-12-01T07:06:13.736Z,1.49
2022-12-01T07:07:13.727Z,1.52
2022-12-01T07:08:13.734Z,1.53
2022-12-01T07:09:13.694Z,1.55
2022-12-01T07:10:13.696Z,1.59
2022-12-01T07:11:13.667Z,1.59
2022-12-01T07:12:13.651Z,1.66
2022-12-01T07:13:13.642Z,1.59
2022-12-01T07:14:13.629Z,1.58
2022-12-01T07:15:13.631Z,1.56
2022-12-01T07:16:13.695Z,1.58
2022-12-01T07:17:13.626Z,1.52
2022-12-01T07:18:13.570Z,1.55
2022-12-01T07:19:13.569Z,1.55
2022-12-01T07:20:13.549Z,1.53
2022-12-01T07:21:13.536Z,1.55
2022-12-01T07:22:13.532Z,1.56
2022-12-01T07:23:13.518Z,1.58
2022-12-01T07:24:13.507Z,1.59
2022-12-01T07:25:13.487Z,1.60
2022-12-01T07:26:13.484Z,1.60
2022-12-01T07:27:13.457Z,1.63
2022-12-01T07:28:13.441Z,1.66
2022-12-01T07:29:13.430Z,1.67
2022-12-01T07:30:13.438Z,1.67
2022-12-01T07:31:13.542Z,1.73
2022-12-01T07:32:13.393Z,1.71
2022-12-01T07:33:13.412Z,1.68
2022-12-01T07:34:13.369Z,1.70
2022-12-01T07:35:13.360Z,1.73
2022-12-01T07:36:13.341Z,1.74
2022-12-01T07:37:13.337Z,1.76
2022-12-01T07:38:17.767Z,1.74
2022-12-01T07:39:13.303Z,1.77
2022-12-01T07:40:13.297Z,1.80
2022-12-01T07:41:13.287Z,1.76
2022-12-01T07:42:13.277Z,1.78
2022-12-01T07:43:13.256Z,1.77
2022-12-01T07:44:13.246Z,1.80
2022-12-01T07:45:13.231Z,1.81
2022-12-01T07:46:17.358Z,1.76
2022-12-01T07:47:14.224Z,1.76
2022-12-01T07:48:13.189Z,1.74
2022-12-01T07:49:13.207Z,1.70
2022-12-01T07:50:13.162Z,1.74
2022-12-01T07:51:13.157Z,1.76
2022-12-01T07:52:13.147Z,1.71
2022-12-01T07:53:13.130Z,1.77
2022-12-01T07:54:13.112Z,1.74
2022-12-01T07:55:13.112Z,1.74
2022-12-01T07:56:13.102Z,1.77
2022-12-01T07:57:13.070Z,1.76
2022-12-01T07:58:13.065Z,1.77
2022-12-01T07:59:13.047Z,1.80
2022-12-01T08:00:13.035Z,1.84
2022-12-01T08:01:13.195Z,1.81
2022-12-01T08:02:13.156Z,1.78
2022-12-01T08:03:13.044Z,1.77
2022-12-01T08:04:12.996Z,1.78
2022-12-01T08:05:13.003Z,1.71
2022-12-01T08:06:12.966Z,1.66
2022-12-01T08:07:12.941Z,1.74
2022-12-01T08:08:12.994Z,1.74
2022-12-01T08:09:12.916Z,1.74
2022-12-01T08:10:12.899Z,1.70
2022-12-01T08:11:12.893Z,1.77
2022-12-01T08:12:12.881Z,1.73
2022-12-01T08:13:17.127Z,1.73
2022-12-01T08:14:12.856Z,1.71
2022-12-01T08:15:12.842Z,1.70
2022-12-01T08:16:12.928Z,1.76
2022-12-01T08:17:12.816Z,1.73
2022-12-01T08:18:12.792Z,1.73
2022-12-01T08:19:12.791Z,1.73
2022-12-01T08:20:12.769Z,1.76
2022-12-01T08:21:12.795Z,1.78
2022-12-01T08:22:12.748Z,1.74
2022-12-01T08:23:12.738Z,1.76
2022-12-01T08:24:12.730Z,1.77
2022-12-01T08:25:12.716Z,1.78
2022-12-01T08:26:12.697Z,1.80
2022-12-01T08:27:12.685Z,1.81
2022-12-01T08:28:12.675Z,1.85
2022-12-01T08:29:17.047Z,1.77
2022-12-01T08:30:13.671Z,1.80
2022-12-01T08:31:12.725Z,1.85
2022-12-01T08:32:12.622Z,1.81
2022-12-01T08:33:12.605Z,1.87
2022-12-01T08:34:12.588Z,1.80
2022-12-01T08:35:12.594Z,1.77
2022-12-01T08:36:12.573Z,1.81
2022-12-01T08:37:12.586Z,1.81
2022-12-01T08:38:12.548Z,1.85
2022-12-01T08:39:12.511Z,1.89
2022-12-01T08:40:12.514Z,1.92
2022-12-01T08:41:12.501Z,1.94
2022-12-01T08:42:12.494Z,1.92
2022-12-01T08:43:23.195Z,1.92
2022-12-01T08:44:13.590Z,1.91
2022-12-01T08:45:12.455Z,1.95
2022-12-01T08:46:12.499Z,1.94
2022-12-01T08:47:18.500Z,1.91
2022-12-01T08:48:13.431Z,1.89
2022-12-01T08:49:12.401Z,1.91
2022-12-01T08:50:12.389Z,1.94
2022-12-01T08:51:12.373Z,1.95
2022-12-01T08:52:12.379Z,1.99
2022-12-01T08:53:12.379Z,2.00
2022-12-01T08:54:12.329Z,2.06
2022-12-01T08:55:12.326Z,2.10
2022-12-01T08:56:12.323Z,2.06
2022-12-01T08:57:12.296Z,2.04
2022-12-01T08:58:12.288Z,2.04
2022-12-01T08:59:12.264Z,2.11
2022-12-01T09:00:12.256Z,2.04
2022-12-01T09:01:12.252Z,2.00
2022-12-01T09:02:12.280Z,2.07
2022-12-01T09:03:12.305Z,2.02
2022-12-01T09:04:12.201Z,2.08
2022-12-01T09:05:12.194Z,2.06
2022-12-01T09:06:12.191Z,2.08
2022-12-01T09:07:12.161Z,2.06
2022-12-01T09:08:12.280Z,2.08
2022-12-01T09:09:12.184Z,2.06
2022-12-01T09:10:12.122Z,2.07
2022-12-01T09:11:12.113Z,2.07
2022-12-01T09:12:12.094Z,2.08
2022-12-01T09:13:12.089Z,2.11
2022-12-01T09:14:12.075Z,2.08
2022-12-01T09:15:12.070Z,2.10
2022-12-01T09:16:12.126Z,2.10
2022-12-01T09:17:12.038Z,2.10
2022-12-01T09:18:12.027Z,2.10
2022-12-01T09:19:13.369Z,2.10
2022-12-01T09:20:12.002Z,2.13
2022-12-01T09:21:11.981Z,2.15
2022-12-01T09:22:11.971Z,2.14
2022-12-01T09:23:11.970Z,2.18
2022-12-01T09:24:11.950Z,2.15
2022-12-01T09:25:11.958Z,2.15
2022-12-01T09:26:13.744Z,2.14
2022-12-01T09:27:11.907Z,2.18
2022-12-01T09:28:11.896Z,2.18
2022-12-01T09:29:11.883Z,2.22
2022-12-01T09:30:11.951Z,2.26
2022-12-01T09:31:11.919Z,2.25
2022-12-01T09:32:11.845Z,2.28
2022-12-01T09:33:11.824Z,2.31
2022-12-01T09:34:11.816Z,2.28
2022-12-01T09:35:11.797Z,2.26
2022-12-01T09:36:11.791Z,2.31
2022-12-01T09:37:11.784Z,2.28
2022-12-01T09:38:11.760Z,2.29
2022-12-01T09:39:11.746Z,2.31
2022-12-01T09:40:11.735Z,2.35
2022-12-01T09:41:11.760Z,2.33
2022-12-01T09:42:11.709Z,2.35
2022-12-01T09:43:11.705Z,2.31
2022-12-01T09:44:11.683Z,2.31
2022-12-01T09:45:11.676Z,2.31
2022-12-01T09:46:11.733Z,2.26
2022-12-01T09:47:11.747Z,2.29
2022-12-01T09:48:11.629Z,2.31
2022-12-01T09:49:11.615Z,2.29
2022-12-01T09:50:11.617Z,2.29
2022-12-01T09:51:11.609Z,2.29
2022-12-01T09:52:11.589Z,2.36
2022-12-01T09:53:11.575Z,2.36
2022-12-01T09:54:11.560Z,2.35
2022-12-01T09:55:11.549Z,2.33
2022-12-01T09:56:13.054Z,2.35
2022-12-01T09:57:11.553Z,2.36
2022-12-01T09:58:11.507Z,2.42
2022-12-01T09:59:11.500Z,2.43
2022-12-01T10:00:11.479Z,2.50
2022-12-01T10:01:11.564Z,2.51
2022-12-01T10:02:11.566Z,2.51
2022-12-01T10:03:11.439Z,2.56
2022-12-01T10:04:11.422Z,2.54
2022-12-01T10:05:11.510Z,2.56
2022-12-01T10:06:27.132Z,2.53
2022-12-01T10:07:12.425Z,2.54
2022-12-01T10:08:11.375Z,2.50
2022-12-01T10:09:11.357Z,2.56
2022-12-01T10:10:11.339Z,2.61
2022-12-01T10:11:11.339Z,2.61
2022-12-01T10:12:11.321Z,2.54
2022-12-01T10:13:11.334Z,2.60
2022-12-01T10:14:15.156Z,2.57
2022-12-01T10:15:12.325Z,2.56
2022-12-01T10:16:11.373Z,2.60
2022-12-01T10:17:11.269Z,2.56
2022-12-01T10:18:11.260Z,2.62
2022-12-01T10:19:11.252Z,2.61
2022-12-01T10:20:11.211Z,2.69
2022-12-01T10:21:11.213Z,2.67
2022-12-01T10:22:11.188Z,2.74
2022-12-01T10:23:11.175Z,2.71
2022-12-01T10:24:11.154Z,2.72
2022-12-01T10:25:11.153Z,2.75
2022-12-01T10:26:11.134Z,2.68
2022-12-01T10:27:11.137Z,2.65
2022-12-01T10:28:11.123Z,2.68
2022-12-01T10:29:11.123Z,2.67
2022-12-01T10:30:11.093Z,2.69
2022-12-01T10:31:11.114Z,2.68
2022-12-01T10:32:11.066Z,2.69
2022-12-01T10:33:11.057Z,2.68
2022-12-01T10:34:11.040Z,2.68
2022-12-01T10:35:11.019Z,2.67
2022-12-01T10:36:11.011Z,2.69
2022-12-01T10:37:10.998Z,2.65
2022-12-01T10:38:11.136Z,2.71
2022-12-01T10:39:10.958Z,2.74
2022-12-01T10:40:10.972Z,2.82
2022-12-01T10:41:10.948Z,2.87
2022-12-01T10:42:10.931Z,2.90
2022-12-01T10:43:10.942Z,2.97
2022-12-01T10:44:10.917Z,2.95
2022-12-01T10:45:10.925Z,2.90
2022-12-01T10:46:10.910Z,2.92
2022-12-01T10:47:10.874Z,2.89
2022-12-01T10:48:10.861Z,2.92
2022-12-01T10:49:10.842Z,2.95
2022-12-01T10:50:10.836Z,3.01
2022-12-01T10:51:10.820Z,3.00
2022-12-01T10:52:10.803Z,2.93
2022-12-01T10:53:10.784Z,2.93
2022-12-01T10:54:10.787Z,2.92
2022-12-01T10:55:10.764Z,2.97
2022-12-01T10:56:10.746Z,2.92
2022-12-01T10:57:10.734Z,2.90
2022-12-01T10:58:10.728Z,2.93
2022-12-01T10:59:10.714Z,2.90
2022-12-01T11:00:10.713Z,2.97
2022-12-01T11:01:10.928Z,3.00
2022-12-01T11:02:10.780Z,3.03
2022-12-01T11:03:11.053Z,3.05
2022-12-01T11:04:10.648Z,3.04
2022-12-01T11:05:10.641Z,3.00
2022-12-01T11:06:10.630Z,3.08
2022-12-01T11:07:10.607Z,3.00
2022-12-01T11:08:10.668Z,2.93
2022-12-01T11:09:10.589Z,2.89
2022-12-01T11:10:10.577Z,2.89
2022-12-01T11:11:10.566Z,2.83
2022-12-01T11:12:10.556Z,2.86
2022-12-01T11:13:10.539Z,2.87
2022-12-01T11:14:10.514Z,2.87
2022-12-01T11:15:10.514Z,2.87
2022-12-01T11:16:10.504Z,2.86
2022-12-01T11:17:10.521Z,2.85
2022-12-01T11:18:10.463Z,2.89
2022-12-01T11:19:10.539Z,2.93
2022-12-01T11:20:10.553Z,2.90
2022-12-01T11:21:10.433Z,2.90
2022-12-01T11:22:10.431Z,2.92
2022-12-01T11:23:10.401Z,2.92
2022-12-01T11:24:10.391Z,2.87
2022-12-01T11:25:10.381Z,2.95
2022-12-01T11:26:10.364Z,2.95
2022-12-01T11:27:10.346Z,2.98
2022-12-01T11:28:10.343Z,2.95
2022-12-01T11:29:10.335Z,2.92
2022-12-01T11:30:10.315Z,2.95
2022-12-01T11:31:10.295Z,2.90
2022-12-01T11:32:10.384Z,2.97
2022-12-01T11:33:10.295Z,3.01
2022-12-01T11:34:10.271Z,3.01
2022-12-01T11:35:10.251Z,3.05
2022-12-01T11:36:15.885Z,3.10
2022-12-01T11:37:10.236Z,3.11
2022-12-01T11:39:10.210Z,3.10
2022-12-01T11:40:10.189Z,3.05
2022-12-01T11:41:10.180Z,3.07
2022-12-01T11:42:10.156Z,3.04
2022-12-01T11:43:10.145Z,3.03
2022-12-01T11:44:28.533Z,3.04
2022-12-01T11:45:11.153Z,3.07
2022-12-01T11:46:10.148Z,3.07
2022-12-01T11:47:22.723Z,3.04
2022-12-01T11:48:11.109Z,3.00
2022-12-01T11:49:10.087Z,2.93
2022-12-01T11:50:10.064Z,3.00
2022-12-01T11:51:10.041Z,3.01
2022-12-01T11:52:10.031Z,3.03
2022-12-01T11:53:10.022Z,3.00
2022-12-01T11:54:10.005Z,3.01
2022-12-01T11:55:10.376Z,3.01
2022-12-01T11:56:09.994Z,3.05
2022-12-01T11:57:33.089Z,3.08
2022-12-01T11:58:10.978Z,3.03
2022-12-01T11:59:09.940Z,3.07
2022-12-01T12:00:09.922Z,3.07
2022-12-01T12:01:09.907Z,3.18
2022-12-01T12:02:10.004Z,3.19
2022-12-01T12:03:09.955Z,3.23
2022-12-01T12:04:09.884Z,3.25
2022-12-01T12:05:09.887Z,3.26
2022-12-01T12:06:38.988Z,3.28
2022-12-01T12:07:10.859Z,3.22
2022-12-01T12:08:09.819Z,3.29
2022-12-01T12:09:09.847Z,3.29
2022-12-01T12:10:09.784Z,3.32
2022-12-01T12:11:09.865Z,3.34
2022-12-01T12:12:09.775Z,3.37
2022-12-01T12:13:09.754Z,3.37
2022-12-01T12:14:09.740Z,3.37
2022-12-01T12:15:09.729Z,3.34
2022-12-01T12:16:09.707Z,3.34
2022-12-01T12:17:09.704Z,3.36
2022-12-01T12:18:09.730Z,3.36
2022-12-01T12:19:09.677Z,3.34
2022-12-01T12:20:10.155Z,3.31
2022-12-01T12:21:09.675Z,3.32
2022-12-01T12:22:09.635Z,3.32
2022-12-01T12:23:09.626Z,3.31
2022-12-01T12:24:09.616Z,3.34
2022-12-01T12:25:09.603Z,3.41
2022-12-01T12:26:09.606Z,3.36
2022-12-01T12:27:09.567Z,3.31
2022-12-01T12:28:09.558Z,3.31
2022-12-01T12:29:13.803Z,3.32
2022-12-01T12:30:09.539Z,3.41
2022-12-01T12:31:09.596Z,3.37
2022-12-01T12:32:09.508Z,3.42
2022-12-01T12:33:09.494Z,3.47
2022-12-01T12:34:09.489Z,3.47
2022-12-01T12:35:09.474Z,3.42
2022-12-01T12:36:09.455Z,3.42
2022-12-01T12:37:09.469Z,3.41
2022-12-01T12:38:09.437Z,3.42
2022-12-01T12:39:13.595Z,3.51
2022-12-01T12:40:10.430Z,3.45
2022-12-01T12:41:09.391Z,3.45
2022-12-01T12:42:09.380Z,3.47
2022-12-01T12:43:09.371Z,3.51
2022-12-01T12:44:09.357Z,3.48
2022-12-01T12:45:09.338Z,3.56
2022-12-01T12:46:09.352Z,3.55
2022-12-01T12:47:09.321Z,3.63
2022-12-01T12:48:09.296Z,3.62
2022-12-01T12:49:19.650Z,3.59
2022-12-01T12:50:10.331Z,3.53
2022-12-01T12:51:09.261Z,3.50
2022-12-01T12:52:09.284Z,3.50
2022-12-01T12:53:09.271Z,3.45
2022-12-01T12:54:09.284Z,3.48
2022-12-01T12:55:09.201Z,3.51
2022-12-01T12:56:09.195Z,3.51
2022-12-01T12:57:09.188Z,3.47
2022-12-01T12:58:11.294Z,3.47
2022-12-01T12:59:09.158Z,3.48
2022-12-01T13:00:09.140Z,3.50
2022-12-01T13:01:09.228Z,3.47
2022-12-01T13:02:09.110Z,3.48
2022-12-01T13:03:09.172Z,3.48
2022-12-01T13:04:09.101Z,3.51
2022-12-01T13:05:09.070Z,3.53
2022-12-01T13:06:09.062Z,3.51
2022-12-01T13:07:09.051Z,3.51
2022-12-01T13:08:09.125Z,3.53
2022-12-01T13:09:09.048Z,3.55
2022-12-01T13:10:09.013Z,3.56
2022-12-01T13:11:09.011Z,3.55
2022-12-01T13:12:08.993Z,3.55
2022-12-01T13:13:09.005Z,3.53
2022-12-01T13:14:08.957Z,3.56
2022-12-01T13:15:08.955Z,3.58
2022-12-01T13:16:08.956Z,3.56
2022-12-01T13:17:08.913Z,3.51
2022-12-01T13:18:08.926Z,3.51
2022-12-01T13:19:08.903Z,3.55